Paris, Franţa

02:55 AM CEST on iulie 02, 2015 (GMT +0200)
Charles de Gaulle | | Change Station
CLOSE
Current Station
Aeroport
Location: Paris / Charles De Gaulle,
Elevation: 367 ft
Nearby Weather Stations

Elev 367 ft 49.02 °N, 2.53 °E | Updated 25 minutes ago

Clear
Cer senin
79 °F
Feels Like 79 °F
N
7
Vânt variabil Vânt from VNV

astăzi
High -- | Low -- °F
--% Chance of Precip.
Ieri
High -- | Low -- °F
Precip. -- inch
5:50 AM 9:57 PM
Lună plină, 100% visible
Presiunea 30.01 inch
Vizibilitatea -9999.0 mile
Nori
Punctul de rouă 64 °F
Umiditatea 61%
Precipitaţii 0.00 inch
Adâncimea zăpezii Not available.
UV Not available.
Pollen Not available.
Calitatea aerului Not available.
Flu Activity Not available.
METAR LFPG 020030Z 30006KT CAVOK 26/18 Q1016 NOSIG

More Conditions Fewer Conditions

Presiunea 30.01 inch
Vizibilitatea -9999.0 mile
Nori
Punctul de rouă 64 °F
Umiditatea 61%
Precipitaţii 0.00 inch
Adâncimea zăpezii Not available.
UV Not available.
Pollen Not available.
Calitatea aerului Not available.
Flu Activity Not available.
METAR LFPG 020030Z 30006KT CAVOK 26/18 Q1016 NOSIG

More Conditions Fewer Conditions

10-Day Weather Forecast

×

Almanac

Astronomie

Jul. 02, 2015 Răsărit Apus
Timpul Actual
Crepusculul Civil
Crepusculul nautic
Răsărit Astronomic
Luna
Durata zilei lumină
Lungimea zilei
Tomorrow will be .
, % of the Moon is Illuminated

Extremele de azi

Country Highs Country Lows

Community

WunderPhotos

Upload Photos

1,834,355 photos uploaded!

WunderBlogs® & News

Nearby

Calitatea aerului

  Calitatea aerului Index de calitate a aerului Poluat
Not available.

Adâncimea zapezii

Station Depth Elevation

Earthquake Activity

Oraş Distance Mag. Time & Date
Minimum magnitude displayed is 2.5.

Coastal Water Temperatures

Locul Temperatura

Stations

Nearby Weather Stations

Locaţia staţiei Temp Vânt rece Punctul de rouă Umiditatea Vânt Precip. Elev Actualizare Type